Domov
logo

Vyskúšajte rýchly a spoľahlivý webhosting

Aktuálne počasie

LZIB - letisko Bratislava

Hodnoty namerané: 27.01.2021, 04:30 SEČ
Aktuálny čas: 27.01.2021, 04:39 SEČ
Aktualizované: pred 9 min.
Teplota: 1°C, pocitová teplota -3°C
Rosný bod: -2°C
Vietor: 15 km/h 290° (ZSZ)
Dohľadnosť: viac ako 10 km
Stav počasia: bez zrážok
Oblačnosť: malá oblačnosť na 1006 m, polooblačno na 1920 m, oblačno na 2560 m
Základňa oblačnosti: 1006 m
Vlhkosť vzduchu: 81 %
Tlak vzduchu: 1015 hPa
METAR: LZIB 270330Z 29008KT 9999 FEW033 SCT063 BKN084 01/M02 Q1015 R13/620195

LZKZ - letisko Košice

Hodnoty namerané: 27.01.2021, 04:30 SEČ
Aktuálny čas: 27.01.2021, 04:39 SEČ
Aktualizované: pred 9 min.
Teplota: -7°C, pocitová teplota -11°C
Rosný bod: -7°C
Vietor: 7 km/h 320° (SZ)
Dohľadnosť: viac ako 10 km
Stav počasia: bez zrážok
Oblačnosť: jasno
Vlhkosť vzduchu: 100 %
Tlak vzduchu: 1012 hPa
METAR: LZKZ 270330Z 32004KT CAVOK M07/M07 Q1012

LZPP - letisko Piešťany

Hodnoty namerané: 27.01.2021, 04:30 SEČ
Aktuálny čas: 27.01.2021, 04:39 SEČ
Aktualizované: pred 9 min.
Teplota: -3°C, pocitová teplota -5°C
Rosný bod: -3°C
Vietor: 6 km/h 100° (V)
Dohľadnosť: 5000 m
Stav počasia: dymno
Oblačnosť: zamračené na 2012 m
Základňa oblačnosti: 2012 m
Vlhkosť vzduchu: 100 %
Tlak vzduchu: 1014 hPa
METAR: LZPP 270330Z AUTO 10003KT 5000 BR OVC066/// M03/M03 Q1014

LZTT - letisko Poprad Tatry

Hodnoty namerané: 27.01.2021, 04:30 SEČ
Aktuálny čas: 27.01.2021, 04:39 SEČ
Aktualizované: pred 9 min.
Teplota: -7°C, pocitová teplota -12°C
Rosný bod: -9°C
Vietor: premenlivý 11 km/h
Dohľadnosť: viac ako 10 km
Stav počasia: bez zrážok
Oblačnosť: malá oblačnosť na 1097 m
Základňa oblačnosti: 1097 m
Vlhkosť vzduchu: 86 %
Tlak vzduchu: 1009 hPa
METAR: LZTT 270330Z VRB06KT 9999 FEW036 M07/M09 Q1009

LZSL - letisko Sliač

Hodnoty namerané: 01.01.2021, 06:30 SEČ
Aktuálny čas: 27.01.2021, 04:39 SEČ
Aktualizované: pred 622:09 hod.
Teplota: 1°C
Rosný bod: 1°C
Vietor: premenlivý 4 km/h
Dohľadnosť: 3000 m
Stav počasia: dymno
Oblačnosť: zamračené na 61 m
Základňa oblačnosti: 61 m
Vlhkosť vzduchu: 100 %
Tlak vzduchu: 1009 hPa
METAR: LZSL 010530Z VRB02KT 3000 BR OVC002 01/01 Q1009

LZZI - letisko Žilina

Hodnoty namerané: 27.01.2021, 04:30 SEČ
Aktuálny čas: 27.01.2021, 04:39 SEČ
Aktualizované: pred 9 min.
Teplota: -4°C
Rosný bod: -5°C
Vietor: premenlivý 4 km/h
Dohľadnosť: viac ako 10 km
Stav počasia: bez zrážok
Oblačnosť: jasno
Vlhkosť vzduchu: 93 %
Tlak vzduchu: 1013 hPa
METAR: LZZI 270330Z VRB02KT CAVOK M04/M05 Q1013

POZNÁMKY:

SEČ - stredoeurópsky čas (UTC+1hod.)

SELČ - stredoeurópsky letný čas (UTC+2hod.)

UTC - univerzálny svetový čas, GMT, ZULU

METAR - sú pravidelné kódované letecké meteorologické správy. Tie zostavujú a zverejňujú meteorologické stanice letísk v polhodinových/hodinových intervaloch. Na tejto stránke správy METAR zo slovenských letísk nájdete už v dekódovanej podobe.

hore